createdAt,value
2018-12-14T00:02:21.550Z,12.65
2018-12-14T00:04:49.522Z,12.25
2018-12-14T00:07:16.971Z,12.90
2018-12-14T00:09:44.424Z,11.85
2018-12-14T00:12:11.866Z,11.33
2018-12-14T00:14:39.319Z,12.78
2018-12-14T00:17:06.775Z,13.00
2018-12-14T00:19:34.227Z,12.37
2018-12-14T00:22:01.661Z,12.88
2018-12-14T00:24:29.111Z,13.35
2018-12-14T00:26:56.550Z,13.28
2018-12-14T00:29:23.995Z,11.43
2018-12-14T00:31:51.455Z,13.55
2018-12-14T00:34:18.905Z,12.40
2018-12-14T00:36:46.359Z,11.93
2018-12-14T00:39:13.814Z,13.50
2018-12-14T00:41:41.270Z,12.58
2018-12-14T00:44:08.714Z,12.70
2018-12-14T00:46:38.122Z,11.33
2018-12-14T00:49:05.564Z,11.85
2018-12-14T00:51:33.013Z,12.80
2018-12-14T00:54:00.460Z,12.90
2018-12-14T00:56:27.919Z,13.10
2018-12-14T00:58:55.364Z,13.53
2018-12-14T01:01:22.811Z,12.30
2018-12-14T01:03:50.315Z,14.65
2018-12-14T01:06:17.775Z,13.45
2018-12-14T01:08:45.206Z,14.25
2018-12-14T01:11:13.243Z,13.35
2018-12-14T01:13:40.692Z,12.33
2018-12-14T01:16:08.268Z,13.58
2018-12-14T01:18:35.727Z,13.65
2018-12-14T01:21:03.167Z,12.93
2018-12-14T01:23:30.619Z,12.88
2018-12-14T01:25:58.068Z,14.55
2018-12-14T01:28:25.510Z,14.35
2018-12-14T01:30:52.956Z,14.87
2018-12-14T01:33:20.415Z,12.55
2018-12-14T01:35:47.911Z,12.98
2018-12-14T01:38:15.367Z,12.65
2018-12-14T01:40:42.801Z,11.55
2018-12-14T01:43:10.254Z,12.53
2018-12-14T01:45:37.848Z,13.40
2018-12-14T01:48:05.265Z,14.13
2018-12-14T01:50:32.763Z,13.75
2018-12-14T01:53:00.215Z,11.90
2018-12-14T01:55:27.735Z,13.00
2018-12-14T01:57:55.214Z,13.25
2018-12-14T02:00:22.676Z,13.35
2018-12-14T02:02:50.133Z,12.10
2018-12-14T02:05:17.596Z,14.13
2018-12-14T02:07:45.038Z,12.60
2018-12-14T02:10:12.557Z,13.55
2018-12-14T02:12:40.173Z,13.05
2018-12-14T02:15:07.623Z,12.82
2018-12-14T02:17:35.073Z,14.40
2018-12-14T02:20:02.583Z,11.88
2018-12-14T02:22:30.023Z,14.55
2018-12-14T02:24:57.482Z,14.65
2018-12-14T02:27:24.918Z,12.43
2018-12-14T02:29:52.376Z,13.32
2018-12-14T02:32:19.815Z,14.50
2018-12-14T02:34:47.352Z,14.03
2018-12-14T02:37:14.839Z,15.30
2018-12-14T02:39:42.298Z,13.48
2018-12-14T02:42:09.742Z,12.60
2018-12-14T02:44:37.189Z,13.03
2018-12-14T02:47:04.641Z,13.13
2018-12-14T02:49:32.089Z,12.37
2018-12-14T02:51:59.548Z,14.10
2018-12-14T02:54:27.005Z,14.35
2018-12-14T02:56:54.467Z,13.78
2018-12-14T02:59:22.328Z,11.78
2018-12-14T03:01:49.859Z,11.63
2018-12-14T03:04:17.731Z,13.53
2018-12-14T03:06:45.182Z,15.85
2018-12-14T03:09:12.636Z,12.58
2018-12-14T03:11:40.091Z,14.83
2018-12-14T03:14:07.527Z,14.90
2018-12-14T03:16:35.009Z,13.28
2018-12-14T03:19:02.453Z,12.30
2018-12-14T03:21:29.894Z,14.23
2018-12-14T03:23:57.335Z,12.58
2018-12-14T03:26:24.770Z,13.90
2018-12-14T03:28:52.230Z,14.30
2018-12-14T03:31:19.668Z,14.50
2018-12-14T03:33:47.132Z,14.55
2018-12-14T03:36:14.558Z,15.55
2018-12-14T03:38:42.028Z,13.70
2018-12-14T03:41:09.470Z,13.10
2018-12-14T03:43:36.931Z,13.65
2018-12-14T03:46:04.388Z,13.53
2018-12-14T03:48:31.852Z,13.25
2018-12-14T03:50:59.339Z,13.55
2018-12-14T03:53:26.800Z,12.47
2018-12-14T03:55:54.338Z,11.57
2018-12-14T03:58:21.867Z,11.60
2018-12-14T04:00:49.482Z,10.00
2018-12-14T04:03:16.932Z,10.65
2018-12-14T04:05:44.374Z,10.35
2018-12-14T04:08:11.813Z,9.95
2018-12-14T04:10:39.363Z,8.65
2018-12-14T04:13:06.805Z,8.30
2018-12-14T04:15:34.249Z,8.13
2018-12-14T04:18:01.686Z,7.47
2018-12-14T04:20:29.183Z,7.72
2018-12-14T04:22:56.623Z,7.47
2018-12-14T04:25:24.070Z,7.72
2018-12-14T04:27:51.516Z,7.25
2018-12-14T04:30:19.064Z,7.97
2018-12-14T04:32:46.523Z,8.18
2018-12-14T04:35:13.990Z,7.70
2018-12-14T04:37:41.424Z,7.42
2018-12-14T04:40:08.972Z,7.85
2018-12-14T04:42:36.682Z,6.55
2018-12-14T04:45:04.949Z,7.95
2018-12-14T04:47:32.510Z,7.78
2018-12-14T04:49:59.955Z,7.40
2018-12-14T04:52:27.406Z,7.53
2018-12-14T04:54:54.892Z,7.15
2018-12-14T04:57:22.339Z,7.35
2018-12-14T04:59:50.132Z,6.95
2018-12-14T05:02:17.632Z,6.55
2018-12-14T05:04:45.060Z,7.42
2018-12-14T05:07:12.511Z,7.30
2018-12-14T05:09:40.092Z,7.40
2018-12-14T05:12:07.547Z,6.67
2018-12-14T05:14:34.982Z,7.00
2018-12-14T05:17:02.436Z,7.80
2018-12-14T05:19:29.881Z,7.83
2018-12-14T05:21:57.508Z,7.05
2018-12-14T05:24:24.937Z,6.92
2018-12-14T05:26:54.496Z,6.42
2018-12-14T05:29:25.686Z,6.42
2018-12-14T05:31:54.398Z,6.12
2018-12-14T05:34:24.733Z,6.28
2018-12-14T05:36:55.910Z,7.22
2018-12-14T05:39:27.938Z,7.58
2018-12-14T05:41:55.382Z,6.28
2018-12-14T05:44:22.819Z,7.37
2018-12-14T05:46:50.259Z,7.33
2018-12-14T05:49:17.789Z,7.35
2018-12-14T05:51:45.224Z,6.47
2018-12-14T05:54:12.666Z,7.55
2018-12-14T05:56:40.107Z,7.35
2018-12-14T05:59:07.578Z,7.37
2018-12-14T06:01:35.148Z,7.60
2018-12-14T06:04:02.671Z,7.12
2018-12-14T06:06:30.114Z,7.47
2018-12-14T06:08:57.726Z,6.60
2018-12-14T06:11:31.756Z,7.20
2018-12-14T06:14:05.547Z,7.65
2018-12-14T06:16:32.966Z,7.35
2018-12-14T06:19:00.418Z,7.42
2018-12-14T06:21:27.859Z,7.23
2018-12-14T06:23:55.307Z,7.85
2018-12-14T06:26:22.755Z,8.83
2018-12-14T06:28:50.210Z,8.15
2018-12-14T06:31:17.652Z,8.65
2018-12-14T06:33:45.111Z,7.62
2018-12-14T06:36:12.550Z,8.20
2018-12-14T06:38:39.987Z,8.28
2018-12-14T06:41:07.860Z,8.58
2018-12-14T06:43:35.299Z,8.63
2018-12-14T06:46:02.750Z,7.47
2018-12-14T06:48:30.217Z,8.40
2018-12-14T06:50:58.032Z,8.30
2018-12-14T06:53:25.532Z,8.75
2018-12-14T06:55:53.015Z,8.63
2018-12-14T06:58:21.153Z,8.63
2018-12-14T07:00:48.603Z,9.03
2018-12-14T07:03:16.041Z,9.53
2018-12-14T07:05:43.489Z,8.83
2018-12-14T07:08:10.935Z,8.30
2018-12-14T07:10:38.370Z,9.10
2018-12-14T07:13:05.827Z,8.40
2018-12-14T07:15:33.276Z,9.48
2018-12-14T07:18:00.735Z,8.85
2018-12-14T07:20:28.238Z,10.32
2018-12-14T07:22:56.111Z,10.60
2018-12-14T07:25:23.541Z,8.05
2018-12-14T07:27:50.986Z,9.78
2018-12-14T07:30:18.423Z,9.98
2018-12-14T07:32:45.876Z,9.38
2018-12-14T07:35:13.323Z,9.03
2018-12-14T07:37:40.775Z,8.60
2018-12-14T07:40:08.232Z,10.20
2018-12-14T07:42:35.681Z,9.90
2018-12-14T07:45:04.058Z,10.38
2018-12-14T07:47:31.539Z,13.28
2018-12-14T07:49:58.999Z,13.43
2018-12-14T07:52:26.442Z,13.18
2018-12-14T07:54:53.914Z,12.53
2018-12-14T07:57:21.355Z,10.50
2018-12-14T07:59:48.815Z,11.55
2018-12-14T08:02:16.255Z,10.53
2018-12-14T08:04:43.862Z,9.10
2018-12-14T08:07:12.083Z,9.98
2018-12-14T08:09:39.534Z,9.73
2018-12-14T08:12:07.064Z,10.80
2018-12-14T08:14:34.519Z,10.90
2018-12-14T08:17:01.967Z,10.38
2018-12-14T08:19:29.833Z,9.45
2018-12-14T08:21:57.826Z,10.98
2018-12-14T08:24:25.280Z,9.88
2018-12-14T08:26:52.727Z,10.08
2018-12-14T08:29:20.179Z,10.60
2018-12-14T08:31:47.631Z,10.30
2018-12-14T08:34:15.394Z,10.38
2018-12-14T08:36:42.873Z,10.50
2018-12-14T08:39:10.315Z,10.13
2018-12-14T08:41:38.027Z,10.88
2018-12-14T08:44:05.712Z,11.05
2018-12-14T08:46:33.160Z,10.55
2018-12-14T08:49:00.600Z,9.63
2018-12-14T08:51:28.071Z,9.35
2018-12-14T08:53:55.514Z,11.22
2018-12-14T08:56:23.702Z,10.80
2018-12-14T08:58:51.149Z,9.30
2018-12-14T09:01:18.599Z,9.85
2018-12-14T09:03:46.092Z,12.45
2018-12-14T09:06:13.539Z,12.68
2018-12-14T09:08:42.682Z,11.50
2018-12-14T09:11:10.563Z,12.07
2018-12-14T09:13:38.134Z,12.60
2018-12-14T09:16:05.576Z,12.20
2018-12-14T09:18:33.430Z,11.25
2018-12-14T09:21:01.272Z,11.22
2018-12-14T09:23:28.911Z,11.10
2018-12-14T09:25:56.482Z,11.25
2018-12-14T09:28:23.954Z,11.28
2018-12-14T09:30:51.389Z,11.48
2018-12-14T09:33:18.830Z,11.35
2018-12-14T09:35:46.279Z,12.10
2018-12-14T09:38:14.003Z,12.15
2018-12-14T09:40:41.444Z,12.85
2018-12-14T09:43:08.925Z,12.18
2018-12-14T09:45:36.373Z,22.35
2018-12-14T09:48:03.831Z,15.38
2018-12-14T09:50:31.995Z,19.45
2018-12-14T09:52:59.430Z,12.73
2018-12-14T09:55:26.990Z,12.73
2018-12-14T09:57:54.426Z,20.23
2018-12-14T10:00:21.883Z,14.33
2018-12-14T10:02:49.324Z,13.58
2018-12-14T10:05:16.767Z,13.28
2018-12-14T10:07:47.039Z,12.37
2018-12-14T10:10:13.770Z,11.50
2018-12-14T10:12:41.223Z,12.68
2018-12-14T10:15:08.803Z,11.93
2018-12-14T10:17:36.254Z,12.65
2018-12-14T10:20:06.326Z,12.80
2018-12-14T10:22:33.778Z,11.22
2018-12-14T10:25:01.216Z,10.75
2018-12-14T10:27:28.778Z,11.43
2018-12-14T10:29:56.263Z,12.70
2018-12-14T10:32:23.743Z,12.68
2018-12-14T10:34:51.206Z,13.68
2018-12-14T10:37:18.674Z,10.82
2018-12-14T10:39:46.114Z,12.10
2018-12-14T10:42:13.699Z,10.55
2018-12-14T10:44:41.144Z,10.58
2018-12-14T10:47:08.614Z,11.18
2018-12-14T10:49:36.053Z,12.03
2018-12-14T10:52:03.526Z,12.30
2018-12-14T10:54:31.128Z,12.45
2018-12-14T10:56:59.011Z,12.37
2018-12-14T10:59:26.456Z,11.68
2018-12-14T11:01:56.262Z,11.30
2018-12-14T11:04:25.542Z,11.85
2018-12-14T11:06:53.627Z,10.70
2018-12-14T11:09:21.130Z,10.95
2018-12-14T11:11:48.591Z,12.47
2018-12-14T11:14:16.766Z,11.05
2018-12-14T11:16:44.198Z,10.72
2018-12-14T11:19:11.710Z,11.25
2018-12-14T11:21:39.215Z,12.95
2018-12-14T11:24:06.667Z,10.98
2018-12-14T11:26:34.773Z,12.63
2018-12-14T11:29:02.215Z,13.15
2018-12-14T11:31:29.650Z,12.98
2018-12-14T11:33:57.154Z,11.15
2018-12-14T11:36:24.608Z,11.53
2018-12-14T11:38:52.062Z,11.20
2018-12-14T11:41:19.504Z,12.05
2018-12-14T11:43:46.950Z,11.35
2018-12-14T11:46:14.460Z,11.95
2018-12-14T11:48:41.899Z,11.00
2018-12-14T11:51:10.467Z,11.28
2018-12-14T11:53:37.913Z,12.78
2018-12-14T11:56:05.367Z,11.93
2018-12-14T11:58:32.820Z,11.68
2018-12-14T12:01:00.271Z,13.15
2018-12-14T12:03:27.707Z,12.07
2018-12-14T12:05:55.158Z,11.22
2018-12-14T12:08:22.663Z,12.28
2018-12-14T12:10:50.120Z,11.12
2018-12-14T12:13:17.547Z,9.55
2018-12-14T12:15:44.995Z,11.33
2018-12-14T12:18:12.443Z,11.63
2018-12-14T12:20:39.877Z,12.00
2018-12-14T12:23:07.336Z,9.55
2018-12-14T12:25:34.779Z,9.10
2018-12-14T12:28:02.226Z,9.58
2018-12-14T12:30:29.667Z,11.80
2018-12-14T12:32:57.123Z,9.93
2018-12-14T12:35:24.572Z,11.40
2018-12-14T12:37:52.023Z,9.78
2018-12-14T12:40:19.454Z,9.98
2018-12-14T12:42:46.904Z,10.70
2018-12-14T12:45:14.344Z,11.60
2018-12-14T12:47:41.815Z,11.00
2018-12-14T12:50:09.263Z,10.72
2018-12-14T12:52:36.703Z,10.55
2018-12-14T12:55:04.547Z,10.95
2018-12-14T12:57:32.075Z,10.15
2018-12-14T12:59:59.528Z,10.05
2018-12-14T13:02:26.965Z,11.08
2018-12-14T13:04:55.492Z,11.45
2018-12-14T13:07:23.001Z,15.20
2018-12-14T13:09:50.462Z,11.80
2018-12-14T13:12:17.926Z,10.68
2018-12-14T13:14:45.377Z,10.58
2018-12-14T13:17:12.887Z,10.38
2018-12-14T13:19:40.348Z,10.58
2018-12-14T13:22:07.831Z,11.60
2018-12-14T13:24:35.289Z,10.00
2018-12-14T13:27:03.041Z,10.03
2018-12-14T13:29:32.808Z,11.08
2018-12-14T13:32:00.546Z,10.23
2018-12-14T13:34:27.987Z,10.93
2018-12-14T13:36:55.438Z,10.45
2018-12-14T13:39:22.906Z,9.58
2018-12-14T13:41:50.467Z,10.10
2018-12-14T13:44:18.168Z,10.32
2018-12-14T13:46:45.618Z,11.10
2018-12-14T13:49:13.146Z,10.18
2018-12-14T13:51:40.821Z,10.00
2018-12-14T13:54:08.267Z,8.88
2018-12-14T13:56:35.723Z,9.38
2018-12-14T13:59:03.163Z,9.53
2018-12-14T14:01:30.650Z,9.33
2018-12-14T14:03:58.083Z,10.08
2018-12-14T14:06:25.517Z,9.90
2018-12-14T14:08:52.977Z,9.73
2018-12-14T14:11:20.477Z,9.90
2018-12-14T14:13:47.910Z,9.75
2018-12-14T14:16:15.344Z,8.50
2018-12-14T14:18:42.790Z,10.80
2018-12-14T14:21:10.244Z,10.05
2018-12-14T14:23:37.686Z,8.43
2018-12-14T14:26:05.839Z,9.15
2018-12-14T14:28:33.299Z,7.78
2018-12-14T14:31:00.732Z,9.00
2018-12-14T14:33:28.187Z,9.33
2018-12-14T14:35:55.627Z,10.00
2018-12-14T14:38:23.061Z,11.43
2018-12-14T14:40:50.514Z,11.83
2018-12-14T14:43:17.946Z,12.68
2018-12-14T14:45:45.478Z,9.73
2018-12-14T14:48:12.906Z,10.45
2018-12-14T14:50:40.352Z,9.88
2018-12-14T14:53:07.784Z,9.90
2018-12-14T14:55:35.242Z,11.05
2018-12-14T14:58:02.740Z,11.20
2018-12-14T15:00:31.758Z,12.37
2018-12-14T15:02:59.361Z,12.33
2018-12-14T15:05:26.831Z,12.03
2018-12-14T15:07:54.267Z,11.88
2018-12-14T15:10:21.747Z,11.90
2018-12-14T15:12:49.175Z,11.78
2018-12-14T15:15:16.644Z,10.23
2018-12-14T15:17:44.099Z,10.20
2018-12-14T15:20:11.601Z,10.93
2018-12-14T15:22:39.046Z,10.68
2018-12-14T15:25:06.563Z,13.38
2018-12-14T15:27:34.288Z,12.60
2018-12-14T15:30:01.721Z,12.37
2018-12-14T15:32:29.329Z,11.68
2018-12-14T15:34:59.261Z,11.28
2018-12-14T15:37:26.907Z,11.45
2018-12-14T15:39:54.406Z,10.95
2018-12-14T15:42:21.865Z,12.68
2018-12-14T15:44:49.351Z,9.65
2018-12-14T15:47:16.805Z,11.68
2018-12-14T15:49:44.290Z,11.50
2018-12-14T15:52:11.713Z,10.72
2018-12-14T15:54:39.462Z,10.93
2018-12-14T15:57:08.906Z,11.20
2018-12-14T15:59:36.357Z,13.43
2018-12-14T16:02:03.959Z,12.07
2018-12-14T16:04:31.479Z,11.48
2018-12-14T16:06:58.910Z,11.33
2018-12-14T16:09:26.422Z,12.60
2018-12-14T16:11:53.867Z,12.25
2018-12-14T16:14:21.331Z,13.60
2018-12-14T16:16:48.859Z,12.28
2018-12-14T16:19:16.602Z,11.95
2018-12-14T16:21:44.064Z,12.20
2018-12-14T16:24:11.619Z,13.20
2018-12-14T16:26:39.059Z,11.05
2018-12-14T16:29:06.569Z,11.88
2018-12-14T16:31:34.046Z,13.03
2018-12-14T16:34:01.765Z,14.47
2018-12-14T16:36:30.411Z,16.97
2018-12-14T16:38:57.871Z,15.28
2018-12-14T16:41:25.597Z,17.42
2018-12-14T16:43:53.047Z,16.20
2018-12-14T16:46:20.635Z,14.63
2018-12-14T16:48:48.263Z,14.30
2018-12-14T16:51:17.307Z,14.18
2018-12-14T16:53:52.257Z,14.25
2018-12-14T16:56:35.876Z,13.45
2018-12-14T16:59:03.413Z,14.38
2018-12-14T17:01:31.166Z,13.72
2018-12-14T17:03:58.698Z,12.25
2018-12-14T17:06:26.168Z,12.53
2018-12-14T17:08:53.740Z,14.73
2018-12-14T17:11:21.223Z,13.40
2018-12-14T17:13:49.640Z,14.35
2018-12-14T17:16:17.143Z,13.00
2018-12-14T17:18:44.589Z,13.98
2018-12-14T17:21:12.523Z,13.22
2018-12-14T17:23:40.358Z,13.30
2018-12-14T17:26:07.839Z,13.38
2018-12-14T17:28:35.546Z,11.48
2018-12-14T17:31:03.003Z,12.90
2018-12-14T17:33:35.926Z,14.13
2018-12-14T17:36:00.282Z,14.10
2018-12-14T17:38:28.252Z,13.05
2018-12-14T17:40:55.864Z,12.78
2018-12-14T17:43:23.339Z,12.23
2018-12-14T17:45:51.092Z,12.80
2018-12-14T17:48:18.570Z,12.80
2018-12-14T17:50:46.092Z,11.18
2018-12-14T17:53:13.666Z,10.40
2018-12-14T17:55:41.204Z,11.08
2018-12-14T17:58:08.655Z,11.65
2018-12-14T18:00:36.091Z,11.10
2018-12-14T18:03:03.548Z,11.20
2018-12-14T18:05:31.015Z,11.53
2018-12-14T18:07:58.522Z,11.22
2018-12-14T18:10:25.972Z,11.50
2018-12-14T18:12:53.418Z,13.13
2018-12-14T18:15:21.001Z,11.68
2018-12-14T18:17:48.442Z,10.58
2018-12-14T18:20:15.894Z,12.05
2018-12-14T18:22:43.516Z,15.35
2018-12-14T18:25:11.239Z,17.67
2018-12-14T18:27:38.782Z,16.25
2018-12-14T18:30:06.758Z,16.48
2018-12-14T18:32:34.218Z,15.53
2018-12-14T18:35:01.661Z,15.38
2018-12-14T18:37:29.118Z,13.48
2018-12-14T18:39:56.566Z,18.25
2018-12-14T18:42:24.010Z,22.73
2018-12-14T18:44:51.455Z,21.95
2018-12-14T18:47:18.912Z,16.40
2018-12-14T18:49:46.355Z,15.32
2018-12-14T18:52:13.825Z,13.53
2018-12-14T18:54:41.280Z,12.37
2018-12-14T18:57:08.719Z,14.93
2018-12-14T18:59:36.180Z,12.70
2018-12-14T19:02:03.747Z,12.85
2018-12-14T19:04:31.199Z,12.30
2018-12-14T19:06:58.816Z,12.30
2018-12-14T19:09:26.438Z,11.53
2018-12-14T19:11:54.107Z,10.65
2018-12-14T19:14:21.739Z,10.70
2018-12-14T19:16:49.166Z,11.75
2018-12-14T19:19:16.645Z,11.75
2018-12-14T19:21:44.102Z,10.90
2018-12-14T19:24:11.576Z,11.97
2018-12-14T19:26:39.885Z,10.40
2018-12-14T19:29:07.355Z,11.53
2018-12-14T19:31:34.866Z,11.03
2018-12-14T19:34:02.312Z,10.30
2018-12-14T19:36:29.769Z,10.38
2018-12-14T19:38:57.365Z,9.33
2018-12-14T19:41:25.893Z,10.50
2018-12-14T19:43:53.352Z,11.53
2018-12-14T19:46:20.811Z,13.00
2018-12-14T19:48:48.273Z,13.93
2018-12-14T19:51:15.719Z,13.58
2018-12-14T19:53:43.170Z,16.07
2018-12-14T19:56:10.699Z,14.13
2018-12-14T19:58:38.143Z,12.13
2018-12-14T20:01:05.653Z,11.50
2018-12-14T20:03:33.195Z,11.08
2018-12-14T20:06:00.651Z,12.80
2018-12-14T20:08:28.107Z,11.15
2018-12-14T20:10:55.542Z,10.50
2018-12-14T20:13:23.072Z,10.82
2018-12-14T20:15:57.156Z,10.38
2018-12-14T20:18:20.008Z,9.55
2018-12-14T20:20:47.448Z,9.68
2018-12-14T20:23:14.898Z,14.20
2018-12-14T20:25:42.345Z,11.38
2018-12-14T20:28:09.794Z,7.83
2018-12-14T20:30:37.242Z,8.20
2018-12-14T20:33:04.778Z,8.65
2018-12-14T20:35:32.398Z,9.20
2018-12-14T20:38:00.015Z,9.65
2018-12-14T20:40:27.489Z,8.88
2018-12-14T20:42:54.921Z,9.43
2018-12-14T20:45:22.371Z,9.25
2018-12-14T20:47:49.828Z,11.30
2018-12-14T20:50:17.266Z,11.93
2018-12-14T20:52:45.243Z,11.80
2018-12-14T20:55:12.705Z,10.55
2018-12-14T20:57:40.157Z,10.05
2018-12-14T21:00:08.450Z,10.78
2018-12-14T21:02:35.910Z,10.78
2018-12-14T21:05:04.004Z,11.78
2018-12-14T21:07:31.467Z,11.78
2018-12-14T21:09:59.962Z,11.05
2018-12-14T21:12:27.457Z,11.00
2018-12-14T21:14:57.830Z,11.28
2018-12-14T21:17:25.557Z,12.13
2018-12-14T21:19:55.458Z,10.68
2018-12-14T21:22:22.959Z,11.05
2018-12-14T21:24:50.393Z,12.13
2018-12-14T21:29:51.374Z,10.90
2018-12-14T21:32:20.727Z,11.75
2018-12-14T21:34:48.201Z,11.40
2018-12-14T21:37:17.340Z,11.68
2018-12-14T21:39:45.769Z,10.30
2018-12-14T21:42:13.227Z,11.03
2018-12-14T21:44:40.999Z,11.43
2018-12-14T21:47:08.528Z,10.35
2018-12-14T21:49:36.032Z,11.97
2018-12-14T21:52:03.474Z,11.85
2018-12-14T21:54:30.941Z,12.07
2018-12-14T21:56:58.495Z,11.38
2018-12-14T21:59:25.946Z,11.85
2018-12-14T22:01:53.422Z,11.38
2018-12-14T22:04:20.875Z,10.55
2018-12-14T22:06:48.310Z,12.05
2018-12-14T22:09:15.987Z,11.97
2018-12-14T22:11:43.436Z,11.08
2018-12-14T22:14:11.039Z,11.25
2018-12-14T22:16:39.274Z,10.20
2018-12-14T22:19:07.063Z,9.60
2018-12-14T22:21:34.867Z,10.55
2018-12-14T22:24:02.333Z,10.95
2018-12-14T22:26:29.754Z,9.88
2018-12-14T22:28:57.202Z,10.25
2018-12-14T22:31:24.660Z,10.48
2018-12-14T22:33:52.116Z,10.75
2018-12-14T22:36:19.645Z,10.90
2018-12-14T22:38:47.074Z,10.18
2018-12-14T22:41:14.535Z,11.53
2018-12-14T22:43:42.079Z,11.73
2018-12-14T22:46:09.536Z,11.93
2018-12-14T22:48:36.986Z,11.68
2018-12-14T22:51:04.446Z,11.90
2018-12-14T22:53:31.887Z,11.88
2018-12-14T22:55:59.339Z,11.53
2018-12-14T22:58:26.787Z,11.55
2018-12-14T23:00:54.290Z,11.25
2018-12-14T23:03:21.741Z,9.85
2018-12-14T23:05:49.630Z,11.43
2018-12-14T23:08:17.065Z,10.60
2018-12-14T23:10:44.508Z,10.48
2018-12-14T23:13:11.967Z,11.78
2018-12-14T23:15:39.418Z,11.03
2018-12-14T23:18:06.878Z,11.97
2018-12-14T23:20:34.318Z,11.55
2018-12-14T23:23:01.771Z,10.58
2018-12-14T23:25:29.222Z,11.38
2018-12-14T23:27:56.678Z,10.68
2018-12-14T23:30:24.578Z,11.97
2018-12-14T23:32:52.642Z,9.68
2018-12-14T23:35:20.278Z,9.40
2018-12-14T23:37:47.750Z,9.95
2018-12-14T23:40:15.198Z,10.25
2018-12-14T23:42:42.630Z,11.05
2018-12-14T23:45:10.300Z,10.63
2018-12-14T23:47:39.014Z,9.78
2018-12-14T23:50:08.735Z,11.50
2018-12-14T23:52:38.349Z,11.18
2018-12-14T23:55:06.293Z,9.78
